Monday, January 21, 2019, 6:03 PM EST
Back to Local

KMVL, Morrisville Stowe State Airport

Location: Morrisville, VT, United States Lat: 44.533
Local Time: 6:03 PM EST (23:03 GMT) Lon: -72.617
Time Zone: US/Eastern Elev: 731 ft

Show me the last for .
Show Coded

Time T Td Feel RH Dir Speed Gust Alt SLP Vis Weather Sky Remarks
2019-01-21 16:54 -3 -13 -27 60 340° 13 23 29.99 30.06 5 -SN 1-hr Precip Total: Trace
2019-01-21 16:41 -4 -12 -28 67 Variable 5 21 29.97 - 2 -SN 1-hr Precip Total: Trace
2019-01-21 16:10 -4 -12 -26 67 340° 10 17 29.96 - 1 -SN 1-hr Precip Total: Trace
2019-01-21 15:54 -4 -12 -15 67 Variable 5 - 29.95 30.02 2 -SN 1-hr Precip Total: Trace
6-hr Precip Total (4pm): 0.00"
2019-01-21 15:16 -4 -12 -30 67 360° 9 26 29.92 - 1 -SN 1-hr Precip Total: Trace
2019-01-21 15:05 -4 -13 -26 64 340° 10 17 29.92 - 2 -SN 1-hr Precip Total: Trace
2019-01-21 14:54 -5 -14 -31 64 360° 8 26 29.91 29.98 1 -SN Peak wind: 29 mph (26 kts) from 320° at 05 min
1-hr Precip Total: Trace
2019-01-21 13:54 -5 -13 -28 67 300° 8 20 29.88 29.95 1 -SN 1-hr Precip Total: Trace
2019-01-21 12:54 -5 -13 -29 67 320° 16 21 29.88 29.94 1 -SN 1-hr Precip Total: Trace
6-hr Precip Total (1pm): 0.00"
6-hr Min Temp (1pm): -9.0°F
6-hr Max Temp (1pm): -5.1°F
2019-01-21 12:28 -5 -14 -30 64 340° 10 22 29.87 - 1 -SN 1-hr Precip Total: Trace
2019-01-21 11:54 -5 -13 -20 67 360° 8 - 29.87 29.93 2 -SN 1-hr Precip Total: Trace
2019-01-21 11:45 -5 -13 -22 67 360° 9 - 29.87 - 2 -SN 1-hr Precip Total: Trace
2019-01-21 11:22 -5 -14 -20 64 350° 8 - 29.87 - 3 -SN 1-hr Precip Total: Trace
2019-01-21 10:54 -6 -14 -30 66 Variable 5 20 29.87 29.94 2 -SN 1-hr Precip Total: Trace
2019-01-21 10:43 -6 -14 -28 66 350° 12 16 29.87 - 2 -SN 1-hr Precip Total: Trace
2019-01-21 10:15 -7 -14 -16 70 Variable 3 - 29.87 - 3 -SN 1-hr Precip Total: Trace
2019-01-21 09:54 -8 -16 -25 66 340° 9 - 29.86 29.93 2 -SN 1-hr Precip Total: Trace
6-hr Precip Total (10am): 0.00"
2019-01-21 09:52 -8 -17 -27 63 350° 12 - 29.86 - 2 -SN 1-hr Precip Total: Trace
2019-01-21 08:54 -8 -16 -24 66 350° 8 - 29.83 29.89 3 -SN 1-hr Precip Total: Trace
2019-01-21 07:54 -9 -17 -18 67 280° 3 - 29.80 29.87 5 -SN 1-hr Precip Total: Trace
2019-01-21 06:54 -9 -17 - 67 - Calm - 29.77 29.84 7 -SN 1-hr Precip Total: Trace
6-hr Precip Total (7am): 0.00"
6-hr Min Temp (7am): -9.0°F
6-hr Max Temp (7am): -4.0°F
2019-01-21 05:54 -9 -17 -36 67 340° 17 24 29.77 29.84 3 -SN 1-hr Precip Total: Trace
2019-01-21 04:54 -8 -15 -33 70 350° 14 21 29.76 29.83 4 -SN 1-hr Precip Total: Trace
2019-01-21 03:54 -7 -14 -33 70 330° 14 23 29.73 29.80 3 -SN 1-hr Precip Total: Trace
6-hr Precip Total (4am): 0.00"
2019-01-21 03:04 -6 -13 -30 70 330° 9 20 29.72 - 3 -SN 1-hr Precip Total: Trace
2019-01-21 02:54 -6 -13 -32 70 330° 15 24 29.71 29.77 2 -SN 1-hr Precip Total: Trace
2019-01-21 02:50 -6 -11 -29 76 320° 10 20 29.72 - 2 -SN 1-hr Precip Total: Trace
2019-01-21 01:54 -4 -11 -18 70 350° 7 - 29.71 29.76 5 -SN 1-hr Precip Total: Trace
2019-01-21 01:27 -4 -10 -20 74 350° 9 - 29.69 - 3 -SN 1-hr Precip Total: Trace
2019-01-21 01:15 -4 -11 -30 70 350° 14 26 29.70 - 2 -SN 1-hr Precip Total: Trace
2019-01-21 00:54 -5 -11 -30 74 350° 12 22 29.69 29.75 4 -SN 1-hr Precip Total: Trace
6-hr Precip Total (1am): 0.00"
6-hr Min Temp (1am): -5.1°F
6-hr Max Temp (1am): -2.0°F
2019-01-20 23:54 -5 -11 -28 74 340° 13 20 29.69 29.74 3 -SN 1-hr Precip Total: Trace
24-hr Min Temp (12am): -5.1°F
24-hr Max Temp (12am): 12.0°F
2019-01-20 23:44 -5 -11 -27 74 350° 10 17 29.68 - 4 -SN 1-hr Precip Total: Trace
2019-01-20 23:13 -5 -11 -22 74 350° 9 - 29.67 - 2 -SN 1-hr Precip Total: Trace
2019-01-20 23:01 -5 -11 -20 74 350° 8 - 29.68 - 3 -SN 1-hr Precip Total: Trace
2019-01-20 22:54 -5 -10 -23 78 350° 10 - 29.68 29.73 1 -SN 1-hr Precip Total: Trace
2019-01-20 22:50 -6 -9 -23 83 340° 10 - 29.68 - 1 -SN 1-hr Precip Total: Trace
2019-01-20 22:41 -5 -10 -23 78 350° 10 - 29.67 - 2 -SN 1-hr Precip Total: Trace
2019-01-20 21:54 -5 -10 -29 78 350° 10 21 29.67 29.73 1 -SN 1-hr Precip Total: Trace
6-hr Precip Total (10pm): 0.00"
2019-01-20 21:03 -5 -9 -28 82 350° 10 20 29.68 - 1 -SN BR 1-hr Precip Total: Trace
2019-01-20 20:54 -4 -9 -28 78 350° 14 22 29.67 29.73 1 -SN 1-hr Precip Total: Trace
2019-01-20 20:52 -4 -9 -28 76 360° 10 22 29.67 - 1 -SN 1-hr Precip Total: Trace
2019-01-20 20:40 -4 -10 -28 74 360° 13 22 29.66 - 1 -SN 1-hr Precip Total: Trace
2019-01-20 20:16 -4 -10 -28 74 330° 14 22 29.66 - 2 -SN 1-hr Precip Total: Trace
2019-01-20 19:54 -4 -10 -28 74 360° 15 21 29.65 29.71 3 -SN 1-hr Precip Total: Trace
2019-01-20 19:42 -4 -10 -28 74 340° 14 21 29.65 - 2 -SN 1-hr Precip Total: Trace
2019-01-20 18:54 -2 -9 -26 71 330° 14 23 29.64 29.70 7 -SN 1-hr Precip Total: Trace
6-hr Precip Total (7pm): 0.00"
6-hr Min Temp (7pm): -2.0°F
6-hr Max Temp (7pm): 12.0°F

Support USWX by starting your Amazon purchase here.